North Ridgeville, Ohio
Current Conditions -  °F | °C
As of 12:51 PM on Monday 24 Nov 2014 (Local Time) from KCLE Reporting Station
Broken Clouds Broken Clouds  
Wind Chill: 58°   Ceiling: 11000
Heat Index: 58°   Visibility: 10mi
Dew Point: 50°   Wind: 23mph
Humidity: 75%   Direction: 220°SW
Pressure: 29.3"   Gusts: 38mph
Location:  41.39°N, 82.02°W
Report Text: KCLE 241751Z 22020G33KT 10SM FEW080 BKN110 14/10 A2930 RMK AO2 PK WND 22038/1704 RAE50 SLP921 P0005 60006 T01440100 10172 20128 53012 $
Loading
Personal Weather Stations






























Interactive Weather Map New forecast layout! Learn more

10-Day Weather Forecast

Advertisements
Track Severe Weather on mobile